sensor_id;sensor_type;location;lat;lon;timestamp;P1;durP1;ratioP1;P2;durP2;ratioP2
52542;SDS011;38449;52.696;6.186;2023-08-30T00:00:18;9.32;;;7.55;;
52542;SDS011;38449;52.696;6.186;2023-08-30T00:02:47;10.45;;;7.60;;
52542;SDS011;38449;52.696;6.186;2023-08-30T00:05:13;10.65;;;7.30;;
52542;SDS011;38449;52.696;6.186;2023-08-30T00:07:41;9.48;;;7.70;;
52542;SDS011;38449;52.696;6.186;2023-08-30T00:10:07;8.35;;;7.50;;
52542;SDS011;38449;52.696;6.186;2023-08-30T00:12:36;9.07;;;8.15;;
52542;SDS011;38449;52.696;6.186;2023-08-30T00:15:02;10.50;;;8.10;;
52542;SDS011;38449;52.696;6.186;2023-08-30T00:17:28;9.82;;;7.55;;
52542;SDS011;38449;52.696;6.186;2023-08-30T00:19:55;9.93;;;8.30;;
52542;SDS011;38449;52.696;6.186;2023-08-30T00:22:21;10.73;;;8.00;;
52542;SDS011;38449;52.696;6.186;2023-08-30T00:24:49;10.90;;;7.38;;
52542;SDS011;38449;52.696;6.186;2023-08-30T00:27:16;10.55;;;7.93;;
52542;SDS011;38449;52.696;6.186;2023-08-30T00:29:43;10.68;;;7.32;;
52542;SDS011;38449;52.696;6.186;2023-08-30T00:32:09;8.70;;;7.57;;
52542;SDS011;38449;52.696;6.186;2023-08-30T00:34:35;9.95;;;7.30;;
52542;SDS011;38449;52.696;6.186;2023-08-30T00:37:02;9.68;;;8.20;;
52542;SDS011;38449;52.696;6.186;2023-08-30T00:39:28;8.48;;;7.20;;
52542;SDS011;38449;52.696;6.186;2023-08-30T00:41:55;9.45;;;7.10;;
52542;SDS011;38449;52.696;6.186;2023-08-30T00:44:21;9.18;;;7.47;;
52542;SDS011;38449;52.696;6.186;2023-08-30T00:46:48;10.10;;;8.00;;
52542;SDS011;38449;52.696;6.186;2023-08-30T00:49:14;11.48;;;7.97;;
52542;SDS011;38449;52.696;6.186;2023-08-30T00:51:40;9.07;;;7.43;;
52542;SDS011;38449;52.696;6.186;2023-08-30T00:54:07;10.02;;;8.35;;
52542;SDS011;38449;52.696;6.186;2023-08-30T00:56:33;10.55;;;8.05;;
52542;SDS011;38449;52.696;6.186;2023-08-30T00:59:00;8.77;;;7.88;;
52542;SDS011;38449;52.696;6.186;2023-08-30T01:01:26;10.70;;;8.23;;
52542;SDS011;38449;52.696;6.186;2023-08-30T01:03:53;10.35;;;7.72;;
52542;SDS011;38449;52.696;6.186;2023-08-30T01:06:21;10.40;;;8.02;;
52542;SDS011;38449;52.696;6.186;2023-08-30T01:08:47;10.38;;;8.07;;
52542;SDS011;38449;52.696;6.186;2023-08-30T01:13:52;9.85;;;7.72;;
52542;SDS011;38449;52.696;6.186;2023-08-30T01:16:21;9.35;;;7.72;;
52542;SDS011;38449;52.696;6.186;2023-08-30T01:18:54;10.27;;;7.53;;
52542;SDS011;38449;52.696;6.186;2023-08-30T01:24:28;10.27;;;7.78;;
52542;SDS011;38449;52.696;6.186;2023-08-30T01:27:09;9.75;;;7.70;;
52542;SDS011;38449;52.696;6.186;2023-08-30T01:29:37;8.80;;;7.25;;
52542;SDS011;38449;52.696;6.186;2023-08-30T01:32:07;8.55;;;7.35;;
52542;SDS011;38449;52.696;6.186;2023-08-30T01:34:35;11.18;;;7.72;;
52542;SDS011;38449;52.696;6.186;2023-08-30T01:37:07;9.10;;;7.68;;
52542;SDS011;38449;52.696;6.186;2023-08-30T01:39:34;9.23;;;7.72;;
52542;SDS011;38449;52.696;6.186;2023-08-30T01:42:14;9.73;;;7.80;;
52542;SDS011;38449;52.696;6.186;2023-08-30T01:44:41;10.00;;;7.50;;
52542;SDS011;38449;52.696;6.186;2023-08-30T01:47:10;10.40;;;7.50;;
52542;SDS011;38449;52.696;6.186;2023-08-30T01:49:37;10.27;;;7.63;;
52542;SDS011;38449;52.696;6.186;2023-08-30T01:52:06;11.15;;;7.90;;
52542;SDS011;38449;52.696;6.186;2023-08-30T01:54:32;10.50;;;7.50;;
52542;SDS011;38449;52.696;6.186;2023-08-30T01:56:59;9.20;;;7.60;;
52542;SDS011;38449;52.696;6.186;2023-08-30T01:59:25;10.23;;;7.70;;
52542;SDS011;38449;52.696;6.186;2023-08-30T02:01:52;10.35;;;8.32;;
52542;SDS011;38449;52.696;6.186;2023-08-30T02:04:19;9.55;;;7.72;;
52542;SDS011;38449;52.696;6.186;2023-08-30T02:06:52;10.27;;;7.75;;
52542;SDS011;38449;52.696;6.186;2023-08-30T02:11:52;7.85;;;6.75;;
52542;SDS011;38449;52.696;6.186;2023-08-30T02:14:20;9.55;;;7.63;;
52542;SDS011;38449;52.696;6.186;2023-08-30T02:16:49;9.63;;;7.20;;
52542;SDS011;38449;52.696;6.186;2023-08-30T02:19:16;10.20;;;7.22;;
52542;SDS011;38449;52.696;6.186;2023-08-30T02:21:46;9.80;;;7.80;;
52542;SDS011;38449;52.696;6.186;2023-08-30T02:24:13;10.02;;;7.68;;
52542;SDS011;38449;52.696;6.186;2023-08-30T02:26:41;10.43;;;7.88;;
52542;SDS011;38449;52.696;6.186;2023-08-30T02:29:07;10.25;;;7.68;;
52542;SDS011;38449;52.696;6.186;2023-08-30T02:31:35;9.93;;;7.68;;
52542;SDS011;38449;52.696;6.186;2023-08-30T02:34:01;10.63;;;7.93;;
52542;SDS011;38449;52.696;6.186;2023-08-30T02:36:29;10.23;;;7.88;;
52542;SDS011;38449;52.696;6.186;2023-08-30T02:38:55;11.52;;;8.43;;
52542;SDS011;38449;52.696;6.186;2023-08-30T02:41:21;11.73;;;8.68;;
52542;SDS011;38449;52.696;6.186;2023-08-30T02:43:48;11.85;;;8.25;;
52542;SDS011;38449;52.696;6.186;2023-08-30T02:46:14;9.43;;;7.78;;
52542;SDS011;38449;52.696;6.186;2023-08-30T02:48:41;10.90;;;8.20;;
52542;SDS011;38449;52.696;6.186;2023-08-30T02:51:07;11.20;;;8.63;;
52542;SDS011;38449;52.696;6.186;2023-08-30T02:53:33;11.50;;;8.80;;
52542;SDS011;38449;52.696;6.186;2023-08-30T02:56:00;12.38;;;8.23;;
52542;SDS011;38449;52.696;6.186;2023-08-30T02:58:27;10.00;;;7.70;;
52542;SDS011;38449;52.696;6.186;2023-08-30T03:00:53;9.68;;;8.35;;
52542;SDS011;38449;52.696;6.186;2023-08-30T03:03:19;9.38;;;7.75;;
52542;SDS011;38449;52.696;6.186;2023-08-30T03:05:45;9.38;;;8.32;;
52542;SDS011;38449;52.696;6.186;2023-08-30T03:08:12;10.88;;;8.30;;
52542;SDS011;38449;52.696;6.186;2023-08-30T03:10:38;12.55;;;9.05;;
52542;SDS011;38449;52.696;6.186;2023-08-30T03:13:04;11.95;;;8.65;;
52542;SDS011;38449;52.696;6.186;2023-08-30T03:15:31;11.07;;;7.85;;
52542;SDS011;38449;52.696;6.186;2023-08-30T03:17:59;10.57;;;8.10;;
52542;SDS011;38449;52.696;6.186;2023-08-30T03:20:26;9.73;;;8.32;;
52542;SDS011;38449;52.696;6.186;2023-08-30T03:22:57;14.27;;;8.50;;
52542;SDS011;38449;52.696;6.186;2023-08-30T03:25:24;9.27;;;8.00;;
52542;SDS011;38449;52.696;6.186;2023-08-30T03:27:50;9.75;;;8.50;;
52542;SDS011;38449;52.696;6.186;2023-08-30T03:30:16;10.48;;;8.32;;
52542;SDS011;38449;52.696;6.186;2023-08-30T03:32:42;11.40;;;8.43;;
52542;SDS011;38449;52.696;6.186;2023-08-30T03:35:09;11.88;;;8.45;;
52542;SDS011;38449;52.696;6.186;2023-08-30T03:37:36;12.20;;;8.35;;
52542;SDS011;38449;52.696;6.186;2023-08-30T03:40:03;9.45;;;8.02;;
52542;SDS011;38449;52.696;6.186;2023-08-30T03:42:30;10.68;;;8.15;;
52542;SDS011;38449;52.696;6.186;2023-08-30T03:44:57;11.45;;;8.40;;
52542;SDS011;38449;52.696;6.186;2023-08-30T03:47:23;9.63;;;7.75;;
52542;SDS011;38449;52.696;6.186;2023-08-30T03:49:50;10.70;;;8.00;;
52542;SDS011;38449;52.696;6.186;2023-08-30T03:52:16;9.57;;;8.02;;
52542;SDS011;38449;52.696;6.186;2023-08-30T03:54:42;10.32;;;8.45;;
52542;SDS011;38449;52.696;6.186;2023-08-30T03:57:15;10.60;;;8.25;;
52542;SDS011;38449;52.696;6.186;2023-08-30T03:59:43;9.40;;;8.18;;
52542;SDS011;38449;52.696;6.186;2023-08-30T04:02:10;9.93;;;8.13;;
52542;SDS011;38449;52.696;6.186;2023-08-30T04:04:37;9.85;;;7.97;;
52542;SDS011;38449;52.696;6.186;2023-08-30T04:07:18;11.27;;;8.18;;
52542;SDS011;38449;52.696;6.186;2023-08-30T04:09:44;11.30;;;8.68;;
52542;SDS011;38449;52.696;6.186;2023-08-30T04:12:11;10.57;;;8.48;;
52542;SDS011;38449;52.696;6.186;2023-08-30T04:14:37;10.48;;;8.63;;
52542;SDS011;38449;52.696;6.186;2023-08-30T04:17:15;9.65;;;8.02;;
52542;SDS011;38449;52.696;6.186;2023-08-30T04:22:39;12.75;;;8.57;;
52542;SDS011;38449;52.696;6.186;2023-08-30T04:25:06;12.15;;;8.05;;
52542;SDS011;38449;52.696;6.186;2023-08-30T04:27:35;11.32;;;8.70;;
52542;SDS011;38449;52.696;6.186;2023-08-30T04:30:01;9.40;;;7.78;;
52542;SDS011;38449;52.696;6.186;2023-08-30T04:32:28;9.63;;;7.88;;
52542;SDS011;38449;52.696;6.186;2023-08-30T04:37:53;11.25;;;8.52;;
52542;SDS011;38449;52.696;6.186;2023-08-30T04:40:19;10.93;;;8.90;;
52542;SDS011;38449;52.696;6.186;2023-08-30T04:42:46;11.57;;;8.82;;
52542;SDS011;38449;52.696;6.186;2023-08-30T04:45:12;11.90;;;8.35;;
52542;SDS011;38449;52.696;6.186;2023-08-30T04:47:38;12.63;;;8.45;;
52542;SDS011;38449;52.696;6.186;2023-08-30T04:50:05;12.48;;;9.27;;
52542;SDS011;38449;52.696;6.186;2023-08-30T04:52:31;11.52;;;8.55;;
52542;SDS011;38449;52.696;6.186;2023-08-30T04:54:58;12.52;;;8.57;;
52542;SDS011;38449;52.696;6.186;2023-08-30T04:57:24;11.13;;;8.82;;
52542;SDS011;38449;52.696;6.186;2023-08-30T04:59:50;11.50;;;8.40;;
52542;SDS011;38449;52.696;6.186;2023-08-30T05:02:16;12.82;;;9.13;;
52542;SDS011;38449;52.696;6.186;2023-08-30T05:04:43;13.05;;;8.20;;
52542;SDS011;38449;52.696;6.186;2023-08-30T05:07:10;13.13;;;9.20;;
52542;SDS011;38449;52.696;6.186;2023-08-30T05:09:36;11.93;;;8.98;;
52542;SDS011;38449;52.696;6.186;2023-08-30T05:12:03;12.88;;;9.35;;
52542;SDS011;38449;52.696;6.186;2023-08-30T05:14:29;13.02;;;9.75;;
52542;SDS011;38449;52.696;6.186;2023-08-30T05:16:56;12.73;;;9.52;;
52542;SDS011;38449;52.696;6.186;2023-08-30T05:19:22;12.98;;;8.93;;
52542;SDS011;38449;52.696;6.186;2023-08-30T05:21:50;14.55;;;9.23;;
52542;SDS011;38449;52.696;6.186;2023-08-30T05:24:21;12.73;;;9.45;;
52542;SDS011;38449;52.696;6.186;2023-08-30T05:26:47;12.32;;;8.82;;
52542;SDS011;38449;52.696;6.186;2023-08-30T05:29:14;14.38;;;9.30;;
52542;SDS011;38449;52.696;6.186;2023-08-30T05:31:41;15.65;;;10.30;;
52542;SDS011;38449;52.696;6.186;2023-08-30T05:34:08;15.38;;;9.00;;
52542;SDS011;38449;52.696;6.186;2023-08-30T05:36:35;14.80;;;10.27;;
52542;SDS011;38449;52.696;6.186;2023-08-30T05:39:01;12.57;;;9.55;;
52542;SDS011;38449;52.696;6.186;2023-08-30T05:41:29;12.80;;;9.13;;
52542;SDS011;38449;52.696;6.186;2023-08-30T05:43:56;14.52;;;9.75;;
52542;SDS011;38449;52.696;6.186;2023-08-30T05:46:22;13.25;;;9.52;;
52542;SDS011;38449;52.696;6.186;2023-08-30T05:48:49;15.45;;;9.93;;
52542;SDS011;38449;52.696;6.186;2023-08-30T05:51:15;13.07;;;9.18;;
52542;SDS011;38449;52.696;6.186;2023-08-30T05:53:42;13.25;;;9.65;;
52542;SDS011;38449;52.696;6.186;2023-08-30T05:56:08;13.10;;;8.70;;
52542;SDS011;38449;52.696;6.186;2023-08-30T05:58:34;13.82;;;9.68;;
52542;SDS011;38449;52.696;6.186;2023-08-30T06:03:59;13.40;;;9.70;;
52542;SDS011;38449;52.696;6.186;2023-08-30T06:06:25;13.30;;;9.02;;
52542;SDS011;38449;52.696;6.186;2023-08-30T06:08:53;15.07;;;9.82;;
52542;SDS011;38449;52.696;6.186;2023-08-30T06:11:20;12.60;;;8.75;;
52542;SDS011;38449;52.696;6.186;2023-08-30T06:13:47;14.93;;;9.50;;
52542;SDS011;38449;52.696;6.186;2023-08-30T06:16:13;13.40;;;9.05;;
52542;SDS011;38449;52.696;6.186;2023-08-30T06:18:40;12.55;;;9.30;;
52542;SDS011;38449;52.696;6.186;2023-08-30T06:21:07;13.23;;;9.10;;
52542;SDS011;38449;52.696;6.186;2023-08-30T06:23:33;12.43;;;8.18;;
52542;SDS011;38449;52.696;6.186;2023-08-30T06:26:00;13.30;;;8.88;;
52542;SDS011;38449;52.696;6.186;2023-08-30T06:28:26;13.95;;;9.73;;
52542;SDS011;38449;52.696;6.186;2023-08-30T06:30:52;13.07;;;9.20;;
52542;SDS011;38449;52.696;6.186;2023-08-30T06:33:19;13.35;;;9.00;;
52542;SDS011;38449;52.696;6.186;2023-08-30T06:35:47;13.10;;;9.75;;
52542;SDS011;38449;52.696;6.186;2023-08-30T06:38:15;12.40;;;9.05;;
52542;SDS011;38449;52.696;6.186;2023-08-30T06:40:44;15.63;;;9.30;;
52542;SDS011;38449;52.696;6.186;2023-08-30T06:43:17;13.18;;;9.27;;
52542;SDS011;38449;52.696;6.186;2023-08-30T06:45:44;12.07;;;8.77;;
52542;SDS011;38449;52.696;6.186;2023-08-30T06:48:10;12.40;;;8.48;;
52542;SDS011;38449;52.696;6.186;2023-08-30T06:50:36;11.07;;;8.43;;
52542;SDS011;38449;52.696;6.186;2023-08-30T06:53:03;10.27;;;8.32;;
52542;SDS011;38449;52.696;6.186;2023-08-30T06:55:29;12.13;;;8.73;;
52542;SDS011;38449;52.696;6.186;2023-08-30T06:57:55;10.43;;;7.80;;
52542;SDS011;38449;52.696;6.186;2023-08-30T07:00:22;12.77;;;8.60;;
52542;SDS011;38449;52.696;6.186;2023-08-30T07:02:48;11.07;;;8.02;;
52542;SDS011;38449;52.696;6.186;2023-08-30T07:05:14;12.95;;;8.73;;
52542;SDS011;38449;52.696;6.186;2023-08-30T07:07:41;12.27;;;8.98;;
52542;SDS011;38449;52.696;6.186;2023-08-30T07:10:07;11.40;;;8.52;;
52542;SDS011;38449;52.696;6.186;2023-08-30T07:12:34;11.98;;;8.73;;
52542;SDS011;38449;52.696;6.186;2023-08-30T07:15:01;13.35;;;8.93;;
52542;SDS011;38449;52.696;6.186;2023-08-30T07:17:29;11.32;;;8.27;;
52542;SDS011;38449;52.696;6.186;2023-08-30T07:22:41;10.27;;;8.90;;
52542;SDS011;38449;52.696;6.186;2023-08-30T07:25:08;12.50;;;9.32;;
52542;SDS011;38449;52.696;6.186;2023-08-30T07:27:36;15.55;;;9.48;;
52542;SDS011;38449;52.696;6.186;2023-08-30T07:30:04;14.27;;;9.77;;
52542;SDS011;38449;52.696;6.186;2023-08-30T07:32:31;13.23;;;9.73;;
52542;SDS011;38449;52.696;6.186;2023-08-30T07:34:57;11.73;;;9.27;;
52542;SDS011;38449;52.696;6.186;2023-08-30T07:37:25;12.98;;;9.77;;
52542;SDS011;38449;52.696;6.186;2023-08-30T07:39:51;12.35;;;9.73;;
52542;SDS011;38449;52.696;6.186;2023-08-30T07:42:19;13.13;;;9.15;;
52542;SDS011;38449;52.696;6.186;2023-08-30T07:44:46;13.65;;;9.50;;
52542;SDS011;38449;52.696;6.186;2023-08-30T07:47:12;14.60;;;9.30;;
52542;SDS011;38449;52.696;6.186;2023-08-30T07:49:38;12.35;;;8.75;;
52542;SDS011;38449;52.696;6.186;2023-08-30T07:52:06;12.77;;;9.48;;
52542;SDS011;38449;52.696;6.186;2023-08-30T07:54:36;13.65;;;9.77;;
52542;SDS011;38449;52.696;6.186;2023-08-30T07:57:04;13.60;;;9.60;;
52542;SDS011;38449;52.696;6.186;2023-08-30T07:59:35;14.27;;;9.60;;
52542;SDS011;38449;52.696;6.186;2023-08-30T08:02:14;13.80;;;9.32;;
52542;SDS011;38449;52.696;6.186;2023-08-30T08:04:41;13.05;;;8.80;;
52542;SDS011;38449;52.696;6.186;2023-08-30T08:07:08;14.98;;;9.95;;
52542;SDS011;38449;52.696;6.186;2023-08-30T08:09:34;12.60;;;8.85;;
52542;SDS011;38449;52.696;6.186;2023-08-30T08:12:01;11.63;;;8.95;;
52542;SDS011;38449;52.696;6.186;2023-08-30T08:14:27;12.40;;;9.20;;
52542;SDS011;38449;52.696;6.186;2023-08-30T08:16:53;12.13;;;9.30;;
52542;SDS011;38449;52.696;6.186;2023-08-30T08:19:19;12.85;;;9.68;;
52542;SDS011;38449;52.696;6.186;2023-08-30T08:21:47;13.57;;;9.18;;
52542;SDS011;38449;52.696;6.186;2023-08-30T08:24:13;13.85;;;10.13;;
52542;SDS011;38449;52.696;6.186;2023-08-30T08:26:40;12.07;;;9.13;;
52542;SDS011;38449;52.696;6.186;2023-08-30T08:29:06;11.95;;;9.02;;
52542;SDS011;38449;52.696;6.186;2023-08-30T08:31:32;12.70;;;8.68;;
52542;SDS011;38449;52.696;6.186;2023-08-30T08:34:06;12.93;;;8.68;;
52542;SDS011;38449;52.696;6.186;2023-08-30T08:36:35;12.25;;;9.05;;
52542;SDS011;38449;52.696;6.186;2023-08-30T08:39:14;12.45;;;9.13;;
52542;SDS011;38449;52.696;6.186;2023-08-30T08:41:41;12.95;;;8.90;;
52542;SDS011;38449;52.696;6.186;2023-08-30T08:44:09;12.13;;;8.43;;
52542;SDS011;38449;52.696;6.186;2023-08-30T08:46:36;12.75;;;8.90;;
52542;SDS011;38449;52.696;6.186;2023-08-30T08:49:09;13.15;;;8.50;;
52542;SDS011;38449;52.696;6.186;2023-08-30T08:51:36;10.20;;;8.25;;
52542;SDS011;38449;52.696;6.186;2023-08-30T08:57:05;13.88;;;8.82;;
52542;SDS011;38449;52.696;6.186;2023-08-30T08:59:32;12.90;;;8.70;;
52542;SDS011;38449;52.696;6.186;2023-08-30T09:01:59;12.25;;;8.02;;
52542;SDS011;38449;52.696;6.186;2023-08-30T09:04:26;12.52;;;9.02;;
52542;SDS011;38449;52.696;6.186;2023-08-30T09:06:58;13.75;;;9.63;;
52542;SDS011;38449;52.696;6.186;2023-08-30T09:09:25;10.73;;;8.23;;
52542;SDS011;38449;52.696;6.186;2023-08-30T09:11:52;12.05;;;7.93;;
52542;SDS011;38449;52.696;6.186;2023-08-30T09:14:18;11.93;;;8.00;;
52542;SDS011;38449;52.696;6.186;2023-08-30T09:17:02;9.57;;;7.53;;
52542;SDS011;38449;52.696;6.186;2023-08-30T09:19:29;9.50;;;7.13;;
52542;SDS011;38449;52.696;6.186;2023-08-30T09:21:57;8.82;;;6.85;;
52542;SDS011;38449;52.696;6.186;2023-08-30T09:24:25;9.43;;;6.65;;
52542;SDS011;38449;52.696;6.186;2023-08-30T09:27:02;10.80;;;5.50;;
52542;SDS011;38449;52.696;6.186;2023-08-30T09:29:29;8.80;;;5.88;;
52542;SDS011;38449;52.696;6.186;2023-08-30T09:31:56;10.10;;;6.07;;
52542;SDS011;38449;52.696;6.186;2023-08-30T09:34:22;7.63;;;5.75;;
52542;SDS011;38449;52.696;6.186;2023-08-30T09:36:50;7.80;;;5.43;;
52542;SDS011;38449;52.696;6.186;2023-08-30T09:39:16;7.93;;;5.60;;
52542;SDS011;38449;52.696;6.186;2023-08-30T09:41:44;9.95;;;5.95;;
52542;SDS011;38449;52.696;6.186;2023-08-30T09:44:12;9.05;;;6.65;;
52542;SDS011;38449;52.696;6.186;2023-08-30T09:47:13;8.02;;;6.18;;
52542;SDS011;38449;52.696;6.186;2023-08-30T09:49:34;8.18;;;6.32;;
52542;SDS011;38449;52.696;6.186;2023-08-30T09:54:42;9.38;;;6.70;;
52542;SDS011;38449;52.696;6.186;2023-08-30T09:57:10;9.90;;;6.88;;
52542;SDS011;38449;52.696;6.186;2023-08-30T09:59:37;9.07;;;6.30;;
52542;SDS011;38449;52.696;6.186;2023-08-30T10:02:05;9.63;;;6.70;;
52542;SDS011;38449;52.696;6.186;2023-08-30T10:04:33;8.75;;;6.82;;
52542;SDS011;38449;52.696;6.186;2023-08-30T10:07:04;9.80;;;7.57;;
52542;SDS011;38449;52.696;6.186;2023-08-30T10:09:38;10.65;;;7.25;;
52542;SDS011;38449;52.696;6.186;2023-08-30T10:12:05;8.65;;;7.25;;
52542;SDS011;38449;52.696;6.186;2023-08-30T10:14:32;9.88;;;7.28;;
52542;SDS011;38449;52.696;6.186;2023-08-30T10:17:01;9.70;;;6.80;;
52542;SDS011;38449;52.696;6.186;2023-08-30T10:19:29;9.80;;;7.28;;
52542;SDS011;38449;52.696;6.186;2023-08-30T10:24:44;10.10;;;6.50;;
52542;SDS011;38449;52.696;6.186;2023-08-30T10:27:16;8.85;;;6.75;;
52542;SDS011;38449;52.696;6.186;2023-08-30T10:29:43;8.02;;;6.28;;
52542;SDS011;38449;52.696;6.186;2023-08-30T10:32:31;8.02;;;6.90;;
52542;SDS011;38449;52.696;6.186;2023-08-30T10:35:00;7.80;;;6.47;;
52542;SDS011;38449;52.696;6.186;2023-08-30T10:37:29;8.43;;;6.50;;
52542;SDS011;38449;52.696;6.186;2023-08-30T10:39:59;9.52;;;6.82;;
52542;SDS011;38449;52.696;6.186;2023-08-30T10:42:29;8.25;;;6.55;;
52542;SDS011;38449;52.696;6.186;2023-08-30T10:44:59;9.20;;;6.82;;
52542;SDS011;38449;52.696;6.186;2023-08-30T10:47:30;11.32;;;7.05;;
52542;SDS011;38449;52.696;6.186;2023-08-30T10:49:59;8.30;;;6.40;;
52542;SDS011;38449;52.696;6.186;2023-08-30T10:52:26;9.45;;;6.93;;
52542;SDS011;38449;52.696;6.186;2023-08-30T10:55:09;9.80;;;6.88;;
52542;SDS011;38449;52.696;6.186;2023-08-30T10:57:41;8.85;;;7.13;;
52542;SDS011;38449;52.696;6.186;2023-08-30T11:00:19;9.05;;;7.28;;
52542;SDS011;38449;52.696;6.186;2023-08-30T11:02:48;8.18;;;6.45;;
52542;SDS011;38449;52.696;6.186;2023-08-30T11:05:16;8.95;;;7.03;;
52542;SDS011;38449;52.696;6.186;2023-08-30T11:07:45;9.25;;;7.15;;
52542;SDS011;38449;52.696;6.186;2023-08-30T11:10:12;8.45;;;7.53;;
52542;SDS011;38449;52.696;6.186;2023-08-30T11:12:40;9.48;;;7.28;;
52542;SDS011;38449;52.696;6.186;2023-08-30T11:15:09;9.73;;;7.35;;
52542;SDS011;38449;52.696;6.186;2023-08-30T11:17:36;9.60;;;7.53;;
52542;SDS011;38449;52.696;6.186;2023-08-30T11:22:41;10.00;;;7.75;;
52542;SDS011;38449;52.696;6.186;2023-08-30T11:25:09;9.88;;;7.90;;
52542;SDS011;38449;52.696;6.186;2023-08-30T11:27:37;9.85;;;8.02;;
52542;SDS011;38449;52.696;6.186;2023-08-30T11:30:04;9.13;;;7.13;;
52542;SDS011;38449;52.696;6.186;2023-08-30T11:35:01;9.40;;;7.53;;
52542;SDS011;38449;52.696;6.186;2023-08-30T11:37:28;9.30;;;7.70;;
52542;SDS011;38449;52.696;6.186;2023-08-30T11:39:55;9.05;;;7.38;;
52542;SDS011;38449;52.696;6.186;2023-08-30T11:42:22;11.85;;;8.18;;
52542;SDS011;38449;52.696;6.186;2023-08-30T11:44:49;10.10;;;8.48;;
52542;SDS011;38449;52.696;6.186;2023-08-30T11:47:23;10.57;;;7.95;;
52542;SDS011;38449;52.696;6.186;2023-08-30T11:49:55;10.82;;;7.53;;
52542;SDS011;38449;52.696;6.186;2023-08-30T11:54:51;8.98;;;6.65;;
52542;SDS011;38449;52.696;6.186;2023-08-30T11:57:19;7.43;;;6.25;;
52542;SDS011;38449;52.696;6.186;2023-08-30T11:59:45;7.00;;;6.30;;
52542;SDS011;38449;52.696;6.186;2023-08-30T12:02:13;9.10;;;6.55;;
52542;SDS011;38449;52.696;6.186;2023-08-30T12:04:45;6.80;;;6.10;;
52542;SDS011;38449;52.696;6.186;2023-08-30T12:07:25;7.47;;;6.20;;
52542;SDS011;38449;52.696;6.186;2023-08-30T12:09:52;6.57;;;5.90;;
52542;SDS011;38449;52.696;6.186;2023-08-30T12:12:19;8.75;;;6.20;;
52542;SDS011;38449;52.696;6.186;2023-08-30T12:14:54;7.45;;;5.75;;
52542;SDS011;38449;52.696;6.186;2023-08-30T12:17:21;6.65;;;5.47;;
52542;SDS011;38449;52.696;6.186;2023-08-30T12:19:57;6.22;;;5.50;;
52542;SDS011;38449;52.696;6.186;2023-08-30T12:25:19;9.13;;;5.82;;
52542;SDS011;38449;52.696;6.186;2023-08-30T12:27:55;6.30;;;5.65;;
52542;SDS011;38449;52.696;6.186;2023-08-30T12:30:22;6.32;;;5.68;;
52542;SDS011;38449;52.696;6.186;2023-08-30T12:32:48;6.53;;;5.07;;
52542;SDS011;38449;52.696;6.186;2023-08-30T12:35:14;6.13;;;5.53;;
52542;SDS011;38449;52.696;6.186;2023-08-30T12:37:41;7.80;;;5.90;;
52542;SDS011;38449;52.696;6.186;2023-08-30T12:40:07;5.65;;;5.00;;
52542;SDS011;38449;52.696;6.186;2023-08-30T12:42:34;5.75;;;5.13;;
52542;SDS011;38449;52.696;6.186;2023-08-30T12:45:00;5.82;;;5.18;;
52542;SDS011;38449;52.696;6.186;2023-08-30T12:47:27;5.95;;;5.30;;
52542;SDS011;38449;52.696;6.186;2023-08-30T12:49:53;7.65;;;6.00;;
52542;SDS011;38449;52.696;6.186;2023-08-30T12:52:19;7.57;;;5.93;;
52542;SDS011;38449;52.696;6.186;2023-08-30T12:54:45;7.07;;;5.97;;
52542;SDS011;38449;52.696;6.186;2023-08-30T12:57:13;6.88;;;6.13;;
52542;SDS011;38449;52.696;6.186;2023-08-30T12:59:39;6.68;;;6.03;;
52542;SDS011;38449;52.696;6.186;2023-08-30T13:02:07;7.93;;;6.30;;
52542;SDS011;38449;52.696;6.186;2023-08-30T13:04:34;7.70;;;6.88;;
52542;SDS011;38449;52.696;6.186;2023-08-30T13:07:05;7.30;;;6.60;;
52542;SDS011;38449;52.696;6.186;2023-08-30T13:09:31;8.00;;;6.38;;
52542;SDS011;38449;52.696;6.186;2023-08-30T13:11:57;7.60;;;6.80;;
52542;SDS011;38449;52.696;6.186;2023-08-30T13:14:24;8.52;;;7.63;;
52542;SDS011;38449;52.696;6.186;2023-08-30T13:16:50;9.32;;;7.43;;
52542;SDS011;38449;52.696;6.186;2023-08-30T13:19:17;7.50;;;6.78;;
52542;SDS011;38449;52.696;6.186;2023-08-30T13:21:43;7.95;;;7.13;;
52542;SDS011;38449;52.696;6.186;2023-08-30T13:24:09;7.90;;;6.18;;
52542;SDS011;38449;52.696;6.186;2023-08-30T13:26:35;7.60;;;6.40;;
52542;SDS011;38449;52.696;6.186;2023-08-30T13:29:02;6.53;;;5.82;;
52542;SDS011;38449;52.696;6.186;2023-08-30T13:31:28;7.07;;;6.38;;
52542;SDS011;38449;52.696;6.186;2023-08-30T13:33:54;4.53;;;3.92;;
52542;SDS011;38449;52.696;6.186;2023-08-30T13:36:21;4.45;;;3.97;;
52542;SDS011;38449;52.696;6.186;2023-08-30T13:38:47;4.20;;;3.65;;
52542;SDS011;38449;52.696;6.186;2023-08-30T13:41:13;3.67;;;3.20;;
52542;SDS011;38449;52.696;6.186;2023-08-30T13:43:39;3.83;;;2.80;;
52542;SDS011;38449;52.696;6.186;2023-08-30T13:46:06;3.95;;;3.17;;
52542;SDS011;38449;52.696;6.186;2023-08-30T13:48:32;4.00;;;3.25;;
52542;SDS011;38449;52.696;6.186;2023-08-30T13:50:58;4.15;;;3.30;;
52542;SDS011;38449;52.696;6.186;2023-08-30T13:53:24;4.80;;;3.72;;
52542;SDS011;38449;52.696;6.186;2023-08-30T13:55:52;5.22;;;3.80;;
52542;SDS011;38449;52.696;6.186;2023-08-30T13:58:18;4.72;;;3.78;;
52542;SDS011;38449;52.696;6.186;2023-08-30T14:00:45;6.20;;;3.38;;
52542;SDS011;38449;52.696;6.186;2023-08-30T14:03:11;6.60;;;3.53;;
52542;SDS011;38449;52.696;6.186;2023-08-30T14:05:38;5.20;;;3.45;;
52542;SDS011;38449;52.696;6.186;2023-08-30T14:08:16;4.95;;;3.80;;
52542;SDS011;38449;52.696;6.186;2023-08-30T14:10:43;6.35;;;3.30;;
52542;SDS011;38449;52.696;6.186;2023-08-30T14:13:09;5.40;;;3.45;;
52542;SDS011;38449;52.696;6.186;2023-08-30T14:15:35;6.22;;;3.05;;
52542;SDS011;38449;52.696;6.186;2023-08-30T14:18:01;8.48;;;3.45;;
52542;SDS011;38449;52.696;6.186;2023-08-30T14:20:28;4.13;;;3.15;;
52542;SDS011;38449;52.696;6.186;2023-08-30T14:22:55;4.72;;;2.90;;
52542;SDS011;38449;52.696;6.186;2023-08-30T14:25:21;4.72;;;3.28;;
52542;SDS011;38449;52.696;6.186;2023-08-30T14:27:47;5.47;;;2.90;;
52542;SDS011;38449;52.696;6.186;2023-08-30T14:30:13;5.88;;;2.72;;
52542;SDS011;38449;52.696;6.186;2023-08-30T14:32:40;6.82;;;2.33;;
52542;SDS011;38449;52.696;6.186;2023-08-30T14:35:07;5.85;;;2.47;;
52542;SDS011;38449;52.696;6.186;2023-08-30T14:37:33;5.20;;;2.40;;
52542;SDS011;38449;52.696;6.186;2023-08-30T14:40:03;5.55;;;2.50;;
52542;SDS011;38449;52.696;6.186;2023-08-30T14:42:33;6.38;;;2.30;;
52542;SDS011;38449;52.696;6.186;2023-08-30T14:45:00;4.07;;;2.63;;
52542;SDS011;38449;52.696;6.186;2023-08-30T14:47:28;6.38;;;2.45;;
52542;SDS011;38449;52.696;6.186;2023-08-30T14:49:55;5.53;;;2.58;;
52542;SDS011;38449;52.696;6.186;2023-08-30T14:52:21;5.82;;;2.45;;
52542;SDS011;38449;52.696;6.186;2023-08-30T14:54:48;5.05;;;2.22;;
52542;SDS011;38449;52.696;6.186;2023-08-30T14:57:14;6.32;;;2.58;;
52542;SDS011;38449;52.696;6.186;2023-08-30T14:59:40;5.75;;;2.58;;
52542;SDS011;38449;52.696;6.186;2023-08-30T15:02:06;5.20;;;2.15;;
52542;SDS011;38449;52.696;6.186;2023-08-30T15:04:33;4.80;;;2.05;;
52542;SDS011;38449;52.696;6.186;2023-08-30T15:07:04;5.57;;;2.00;;
52542;SDS011;38449;52.696;6.186;2023-08-30T15:11:57;5.32;;;1.70;;
52542;SDS011;38449;52.696;6.186;2023-08-30T15:14:26;5.78;;;1.85;;
52542;SDS011;38449;52.696;6.186;2023-08-30T15:16:52;6.22;;;1.70;;
52542;SDS011;38449;52.696;6.186;2023-08-30T15:19:19;3.92;;;2.08;;
52542;SDS011;38449;52.696;6.186;2023-08-30T15:21:45;6.13;;;1.85;;
52542;SDS011;38449;52.696;6.186;2023-08-30T15:24:11;6.05;;;2.53;;